Time;durP1;ratioP1;P1;durP2;ratioP2;P2;SDS_P1;SDS_P2;PMS_P1;PMS_P2;Temp;Humidity;BMP_temperature;BMP_pressure;BME280_temperature;BME280_humidity;BME280_pressure;Samples;Min_cycle;Max_cycle;Signal;HPM_P1;HPM_P2
2023/12/12 00:00:37;;;;;;;7.45;2.60;;;;;;;8.28;100.00;100382.94;5021229;28;20140;-71
2023/12/12 00:03:03;;;;;;;12.65;3.00;;;;;;;8.28;100.00;100388.09;5021702;28;20423;-71
2023/12/12 00:05:28;;;;;;;13.07;3.83;;;;;;;8.26;100.00;100397.53;5055636;28;20037;-71
2023/12/12 00:07:54;;;;;;;9.75;2.80;;;;;;;8.26;100.00;100394.09;5010155;28;20546;-71
2023/12/12 00:10:20;;;;;;;13.85;3.45;;;;;;;8.25;100.00;100393.25;5060779;28;20030;-72
2023/12/12 00:12:45;;;;;;;12.23;3.58;;;;;;;8.24;100.00;100393.25;5034405;28;20080;-68
2023/12/12 00:15:11;;;;;;;14.65;3.08;;;;;;;8.22;100.00;100389.84;5027064;28;20127;-68
2023/12/12 00:17:39;;;;;;;14.60;2.95;;;;;;;8.22;100.00;100375.22;5008090;28;20492;-69
2023/12/12 00:20:09;;;;;;;14.02;3.30;;;;;;;8.23;100.00;100370.94;5057301;28;20051;-70
2023/12/12 00:22:36;;;;;;;13.43;3.40;;;;;;;8.23;100.00;100351.22;5024552;28;20111;-69
2023/12/12 00:25:01;;;;;;;9.55;2.53;;;;;;;8.24;100.00;100352.94;5025183;28;20026;-69
2023/12/12 00:27:27;;;;;;;11.25;3.63;;;;;;;8.23;100.00;100347.78;5018631;28;20558;-69
2023/12/12 00:29:52;;;;;;;12.25;3.13;;;;;;;8.23;100.00;100348.63;5021962;28;20037;-69
2023/12/12 00:32:18;;;;;;;11.82;3.28;;;;;;;8.24;100.00;100339.19;5027965;28;20096;-69
2023/12/12 00:34:43;;;;;;;12.65;3.22;;;;;;;8.22;100.00;100340.94;5024613;28;20109;-69
2023/12/12 00:37:08;;;;;;;11.30;2.65;;;;;;;8.22;100.00;100338.38;5057184;28;20041;-69
2023/12/12 00:39:39;;;;;;;11.02;3.63;;;;;;;8.22;100.00;100335.78;5039852;28;20041;-69
2023/12/12 00:42:04;;;;;;;7.35;2.50;;;;;;;8.21;100.00;100341.78;5056519;28;20117;-69
2023/12/12 00:44:30;;;;;;;15.57;3.10;;;;;;;8.21;100.00;100339.22;5023047;28;20559;-69
2023/12/12 00:46:55;;;;;;;16.02;3.33;;;;;;;8.20;100.00;100334.91;5028061;28;20029;-69
2023/12/12 00:49:21;;;;;;;12.90;3.60;;;;;;;8.11;100.00;100330.69;5025321;28;20484;-68
2023/12/12 00:51:46;;;;;;;12.20;3.00;;;;;;;8.05;100.00;100338.44;5028652;28;20092;-69
2023/12/12 00:54:11;;;;;;;12.52;2.80;;;;;;;8.04;100.00;100344.44;5029502;28;20060;-69
2023/12/12 00:56:37;;;;;;;14.40;3.05;;;;;;;8.07;100.00;100348.75;5029290;28;20061;-69
2023/12/12 00:59:02;;;;;;;16.30;2.88;;;;;;;8.11;100.00;100342.69;5028740;28;20112;-69
2023/12/12 01:01:28;;;;;;;9.40;2.95;;;;;;;8.17;100.00;100345.22;5025182;28;20048;-68
2023/12/12 01:03:53;;;;;;;9.40;2.65;;;;;;;8.19;100.00;100351.25;5031825;28;20044;-69
2023/12/12 01:06:23;;;;;;;12.52;2.90;;;;;;;8.14;100.00;100351.25;5027611;28;20851;-68
2023/12/12 01:08:49;;;;;;;11.38;2.70;;;;;;;8.14;100.00;100345.25;5054843;28;20056;-68
2023/12/12 01:11:15;;;;;;;14.15;2.60;;;;;;;8.10;100.00;100348.72;5059959;28;20030;-69
2023/12/12 01:13:40;;;;;;;7.30;2.80;;;;;;;8.01;100.00;100360.75;5024738;28;20033;-69
2023/12/12 01:16:06;;;;;;;8.90;2.58;;;;;;;7.97;100.00;100360.78;5062071;28;20038;-69
2023/12/12 01:18:32;;;;;;;9.90;2.20;;;;;;;7.94;100.00;100353.06;5025376;28;20033;-69
2023/12/12 01:20:57;;;;;;;13.18;3.40;;;;;;;7.95;100.00;100353.06;5061438;28;20157;-68
2023/12/12 01:23:23;;;;;;;9.80;1.80;;;;;;;7.98;100.00;100349.66;5060127;28;20137;-69
2023/12/12 01:25:48;;;;;;;8.85;2.88;;;;;;;7.93;100.00;100341.94;5058146;28;20045;-67
2023/12/12 01:28:14;;;;;;;13.88;2.22;;;;;;;7.85;100.00;100338.53;5026012;28;20041;-68
2023/12/12 01:30:39;;;;;;;12.20;2.17;;;;;;;7.82;100.00;100343.69;4995183;28;20041;-68
2023/12/12 01:33:04;;;;;;;7.82;2.47;;;;;;;7.82;100.00;100330.84;5041912;28;20037;-68
2023/12/12 01:35:30;;;;;;;10.00;2.67;;;;;;;7.83;100.00;100337.66;5040757;28;20033;-69
2023/12/12 01:37:55;;;;;;;10.25;2.75;;;;;;;7.83;100.00;100332.53;5021658;28;20039;-69
2023/12/12 01:40:22;;;;;;;10.60;2.20;;;;;;;7.81;100.00;100331.69;5011317;28;20120;-68
2023/12/12 01:42:47;;;;;;;16.02;3.47;;;;;;;7.84;100.00;100330.81;5029662;28;20030;-69
2023/12/12 01:45:12;;;;;;;10.00;3.03;;;;;;;7.85;100.00;100333.38;5044295;28;20654;-69
2023/12/12 01:47:38;;;;;;;11.15;2.28;;;;;;;7.88;100.00;100337.66;5060083;28;20037;-69
2023/12/12 01:50:05;;;;;;;8.75;2.55;;;;;;;7.91;100.00;100342.78;5041509;28;20029;-68
2023/12/12 01:52:31;;;;;;;12.70;2.22;;;;;;;7.94;100.00;100335.94;5025691;28;20021;-69
2023/12/12 01:54:57;;;;;;;11.23;2.47;;;;;;;7.96;100.00;100338.47;5025262;28;20040;-68
2023/12/12 01:57:23;;;;;;;10.80;2.03;;;;;;;7.97;100.00;100343.63;5023732;28;20048;-68
2023/12/12 01:59:49;;;;;;;11.25;2.50;;;;;;;7.97;100.00;100348.78;5027939;28;20136;-69
2023/12/12 02:02:18;;;;;;;11.45;2.58;;;;;;;7.96;100.00;100341.91;5024623;28;20156;-68
2023/12/12 02:04:47;;;;;;;7.00;2.10;;;;;;;7.98;100.00;100336.78;5027871;28;20099;-69
2023/12/12 02:07:13;;;;;;;7.18;2.00;;;;;;;8.00;100.00;100338.47;5026478;28;20042;-68
2023/12/12 02:09:39;;;;;;;10.48;2.17;;;;;;;8.04;100.00;100341.03;5055818;28;20044;-69
2023/12/12 02:12:05;;;;;;;9.05;1.88;;;;;;;8.06;100.00;100342.72;5027080;28;20038;-69
2023/12/12 02:14:31;;;;;;;11.00;2.20;;;;;;;8.08;100.00;100335.84;5022333;28;20109;-68
2023/12/12 02:16:57;;;;;;;14.05;2.78;;;;;;;8.08;100.00;100334.97;5027796;28;20025;-68
2023/12/12 02:19:22;;;;;;;8.30;2.47;;;;;;;8.09;100.00;100347.88;5057734;28;20036;-68
2023/12/12 02:21:47;;;;;;;11.27;2.38;;;;;;;8.12;100.00;100341.84;5056877;28;20046;-68
2023/12/12 02:24:13;;;;;;;8.80;1.85;;;;;;;8.14;100.00;100340.09;5061576;28;20044;-68
2023/12/12 02:26:38;;;;;;;10.07;1.90;;;;;;;8.15;100.00;100334.09;5057022;28;20492;-68
2023/12/12 02:29:04;;;;;;;16.45;3.70;;;;;;;8.16;100.00;100333.25;5023675;28;20041;-68
2023/12/12 02:31:29;;;;;;;10.15;2.05;;;;;;;8.19;100.00;100330.66;5024876;28;20095;-68
2023/12/12 02:33:55;;;;;;;6.78;2.08;;;;;;;8.19;100.00;100339.22;5026510;28;20049;-68
2023/12/12 02:36:21;;;;;;;11.30;2.42;;;;;;;8.20;100.00;100334.91;5051596;28;20120;-68
2023/12/12 02:38:46;;;;;;;10.57;2.33;;;;;;;8.24;100.00;100332.34;5057663;28;20044;-68
2023/12/12 02:41:11;;;;;;;13.13;2.72;;;;;;;8.26;100.00;100332.31;5024441;28;20042;-69
2023/12/12 02:43:37;;;;;;;10.35;3.20;;;;;;;8.28;100.00;100326.28;5041976;28;20120;-69
2023/12/12 02:46:03;;;;;;;22.88;3.78;;;;;;;8.31;100.00;100333.13;5024987;28;20120;-68
2023/12/12 02:48:28;;;;;;;12.57;2.40;;;;;;;8.29;100.00;100329.72;5059083;28;20083;-68
2023/12/12 02:50:54;;;;;;;15.27;3.08;;;;;;;8.30;100.00;100323.72;5021241;28;20038;-68
2023/12/12 02:53:19;;;;;;;12.70;2.78;;;;;;;8.23;100.00;100327.19;5025108;28;20710;-68
2023/12/12 02:55:44;;;;;;;11.05;2.20;;;;;;;8.17;100.00;100325.50;5024155;28;20036;-68
2023/12/12 02:58:10;;;;;;;9.80;3.15;;;;;;;8.14;100.00;100329.81;5019940;28;20145;-68
2023/12/12 03:00:36;;;;;;;10.57;2.10;;;;;;;8.12;100.00;100321.25;5036639;28;20029;-68
2023/12/12 03:03:01;;;;;;;15.23;2.53;;;;;;;8.13;100.00;100330.69;5022927;28;20443;-68
2023/12/12 03:05:26;;;;;;;14.65;2.53;;;;;;;8.09;100.00;100329.84;5025063;28;20404;-67
2023/12/12 03:07:52;;;;;;;12.75;3.13;;;;;;;8.05;100.00;100335.00;5036459;28;20527;-68
2023/12/12 03:10:17;;;;;;;9.40;2.50;;;;;;;7.95;100.00;100337.63;5024581;28;20473;-68
2023/12/12 03:12:43;;;;;;;16.52;3.90;;;;;;;7.89;100.00;100329.09;5055958;28;20088;-68
2023/12/12 03:15:09;;;;;;;16.67;2.78;;;;;;;7.76;100.00;100330.00;5024622;28;20622;-68
2023/12/12 03:17:34;;;;;;;11.18;2.38;;;;;;;7.67;100.00;100327.47;5026852;28;20037;-68
2023/12/12 03:19:59;;;;;;;8.95;2.30;;;;;;;7.61;100.00;100328.34;5041755;28;20488;-68
2023/12/12 03:22:25;;;;;;;18.48;3.38;;;;;;;7.60;100.00;100329.19;5028126;28;20112;-68
2023/12/12 03:24:50;;;;;;;11.02;2.65;;;;;;;7.62;100.00;100327.50;5054909;28;20078;-67
2023/12/12 03:27:16;;;;;;;10.75;2.38;;;;;;;7.67;100.00;100322.31;5056702;28;20038;-67
2023/12/12 03:29:41;;;;;;;21.58;3.53;;;;;;;7.73;100.00;100317.16;5023722;28;20048;-68
2023/12/12 03:32:06;;;;;;;19.05;3.28;;;;;;;7.77;100.00;100321.44;5022251;28;20087;-68
2023/12/12 03:34:32;;;;;;;17.88;2.75;;;;;;;7.83;100.00;100316.25;5004145;28;20536;-68
2023/12/12 03:36:57;;;;;;;19.98;2.90;;;;;;;7.85;100.00;100317.97;5023794;28;20048;-67
2023/12/12 03:39:23;;;;;;;16.42;3.92;;;;;;;7.89;100.00;100317.06;5023806;28;20047;-68
2023/12/12 03:41:48;;;;;;;15.32;2.90;;;;;;;7.91;100.00;100315.34;5055684;28;20038;-68
2023/12/12 03:44:14;;;;;;;13.10;2.75;;;;;;;7.93;100.00;100316.19;5025030;28;20037;-68
2023/12/12 03:46:39;;;;;;;14.23;2.92;;;;;;;7.95;100.00;100309.31;5043397;28;20551;-68
2023/12/12 03:49:05;;;;;;;16.42;3.08;;;;;;;8.00;100.00;100307.59;5040642;28;20037;-67
2023/12/12 03:51:30;;;;;;;17.05;3.55;;;;;;;8.06;100.00;100310.97;5056662;28;20325;-68
2023/12/12 03:53:55;;;;;;;14.32;3.33;;;;;;;8.06;100.00;100305.84;5034913;28;20071;-68
2023/12/12 03:56:21;;;;;;;21.05;3.65;;;;;;;8.07;100.00;100308.38;5022433;28;20573;-68
2023/12/12 03:58:47;;;;;;;17.33;3.58;;;;;;;8.10;100.00;100294.66;5025760;28;20025;-68
2023/12/12 04:01:12;;;;;;;19.48;3.70;;;;;;;8.12;100.00;100295.50;5018275;28;20034;-68
2023/12/12 04:03:38;;;;;;;16.80;3.83;;;;;;;8.14;100.00;100291.19;5039276;28;20130;-68
2023/12/12 04:06:05;;;;;;;20.00;3.42;;;;;;;8.17;100.00;100286.03;5021253;28;20065;-67
2023/12/12 04:08:30;;;;;;;13.52;3.72;;;;;;;8.17;100.00;100279.16;5023104;28;20099;-68
2023/12/12 04:10:56;;;;;;;20.10;4.13;;;;;;;8.15;100.00;100277.47;5024033;28;20034;-68
2023/12/12 04:13:22;;;;;;;17.20;3.28;;;;;;;8.14;100.00;100268.88;5057715;28;20026;-68
2023/12/12 04:15:47;;;;;;;16.10;2.65;;;;;;;8.13;100.00;100266.34;5055108;28;20044;-68
2023/12/12 04:18:13;;;;;;;16.23;3.47;;;;;;;8.13;100.00;100266.34;5006068;28;20511;-68
2023/12/12 04:20:38;;;;;;;18.08;3.55;;;;;;;8.14;100.00;100257.72;5059152;28;20180;-67
2023/12/12 04:23:04;;;;;;;19.30;3.58;;;;;;;8.15;100.00;100260.31;5028140;28;20033;-67
2023/12/12 04:25:29;;;;;;;16.52;2.85;;;;;;;8.17;100.00;100257.72;5027017;28;20025;-68
2023/12/12 04:27:54;;;;;;;22.40;3.95;;;;;;;8.19;100.00;100251.69;5026876;28;20052;-67
2023/12/12 04:30:20;;;;;;;17.27;3.58;;;;;;;8.20;100.00;100237.09;5024914;28;20033;-68
2023/12/12 04:32:45;;;;;;;15.13;4.20;;;;;;;8.21;100.00;100241.38;5044365;28;20060;-67
2023/12/12 04:35:11;;;;;;;13.93;3.30;;;;;;;8.25;100.00;100238.75;5024778;28;20049;-68
2023/12/12 04:37:37;;;;;;;16.95;3.70;;;;;;;8.27;100.00;100237.06;5029689;28;20120;-68
2023/12/12 04:40:03;;;;;;;16.35;3.22;;;;;;;8.29;100.00;100239.59;5025079;28;20041;-68
2023/12/12 04:42:28;;;;;;;9.38;3.00;;;;;;;8.31;100.00;100248.16;5025131;28;20081;-67
2023/12/12 04:44:54;;;;;;;17.58;3.70;;;;;;;8.30;100.00;100238.75;5056340;28;20512;-68
2023/12/12 04:47:19;;;;;;;11.57;2.92;;;;;;;8.33;100.00;100243.88;5024084;28;20114;-68
2023/12/12 04:49:45;;;;;;;13.68;3.38;;;;;;;8.34;100.00;100251.56;5024363;28;20037;-68
2023/12/12 04:52:10;;;;;;;21.83;4.40;;;;;;;8.40;100.00;100245.50;5022591;28;20034;-67
2023/12/12 04:54:36;;;;;;;22.77;4.05;;;;;;;8.40;100.00;100245.50;5027554;28;20029;-68
2023/12/12 04:57:02;;;;;;;16.90;4.00;;;;;;;8.42;100.00;100241.22;5063592;28;20639;-68
2023/12/12 04:59:27;;;;;;;15.25;3.25;;;;;;;8.40;100.00;100241.22;5028600;28;20049;-67
2023/12/12 05:01:52;;;;;;;17.70;3.88;;;;;;;8.41;100.00;100230.06;5045295;28;20041;-68
2023/12/12 05:04:18;;;;;;;16.75;3.92;;;;;;;8.42;100.00;100236.94;5060682;28;20036;-68
2023/12/12 05:06:47;;;;;;;19.20;3.50;;;;;;;8.42;100.00;100236.06;5028004;28;20041;-68
2023/12/12 05:09:12;;;;;;;14.45;3.75;;;;;;;8.41;100.00;100235.22;5021550;28;20039;-68
2023/12/12 05:11:38;;;;;;;21.02;4.10;;;;;;;8.41;100.00;100227.50;5023506;28;20038;-68
2023/12/12 05:14:05;;;;;;;17.77;4.65;;;;;;;8.46;100.00;100230.00;5026152;28;20128;-68
2023/12/12 05:16:32;;;;;;;18.90;3.83;;;;;;;8.48;100.00;100226.59;5041569;28;20033;-68
2023/12/12 05:18:57;;;;;;;10.65;3.30;;;;;;;8.47;100.00;100221.44;5025641;28;20077;-68
2023/12/12 05:21:23;;;;;;;26.00;4.30;;;;;;;8.47;100.00;100227.44;5057211;28;20037;-68
2023/12/12 05:23:49;;;;;;;16.98;3.45;;;;;;;8.48;100.00;100212.84;5030118;28;20313;-68
2023/12/12 05:26:15;;;;;;;20.73;4.05;;;;;;;8.51;100.00;100221.41;5058103;28;20042;-68
2023/12/12 05:28:41;;;;;;;19.17;4.97;;;;;;;8.55;100.00;100222.22;5027053;28;20488;-67
2023/12/12 05:31:07;;;;;;;20.13;3.80;;;;;;;8.57;100.00;100221.31;5028182;28;20132;-67
2023/12/12 05:33:33;;;;;;;20.58;5.35;;;;;;;8.64;100.00;100211.81;5058518;28;20479;-68
2023/12/12 05:35:58;;;;;;;20.67;3.85;;;;;;;8.66;100.00;100212.69;5026022;28;20041;-67
2023/12/12 05:38:24;;;;;;;17.33;3.95;;;;;;;8.70;100.00;100214.34;5022837;28;20397;-68
2023/12/12 05:40:49;;;;;;;17.50;3.35;;;;;;;8.71;100.00;100210.91;5058865;28;20068;-68
2023/12/12 05:43:15;;;;;;;25.40;4.75;;;;;;;8.73;100.00;100210.88;5057990;28;20540;-68
2023/12/12 05:45:40;;;;;;;22.55;4.00;;;;;;;8.74;100.00;100213.47;5025353;28;20041;-67
2023/12/12 05:48:06;;;;;;;22.85;4.60;;;;;;;8.78;100.00;100207.41;5023241;28;20536;-68
2023/12/12 05:50:31;;;;;;;18.92;3.53;;;;;;;8.80;100.00;100213.41;5023372;28;20037;-68
2023/12/12 05:52:57;;;;;;;24.13;4.70;;;;;;;8.83;100.00;100215.94;5023676;28;20040;-67
2023/12/12 05:55:22;;;;;;;19.38;4.03;;;;;;;8.85;100.00;100218.50;5019918;28;20099;-67
2023/12/12 05:57:48;;;;;;;16.13;4.65;;;;;;;8.89;100.00;100217.59;5056195;28;20040;-68
2023/12/12 06:00:14;;;;;;;18.85;4.07;;;;;;;8.89;100.00;100225.34;5025951;28;20129;-67
2023/12/12 06:02:40;;;;;;;23.40;5.20;;;;;;;8.90;100.00;100219.31;5025506;28;20783;-68
2023/12/12 06:05:07;;;;;;;19.60;4.10;;;;;;;8.93;100.00;100214.97;5029243;28;20037;-67
2023/12/12 06:07:33;;;;;;;15.38;3.28;;;;;;;8.93;100.00;100221.88;5054874;28;20049;-67
2023/12/12 06:09:59;;;;;;;23.08;4.18;;;;;;;8.92;100.00;100220.16;5057983;28;20029;-68
2023/12/12 06:12:24;;;;;;;21.23;3.85;;;;;;;8.93;100.00;100224.44;5022270;28;20053;-68
2023/12/12 06:14:50;;;;;;;20.88;3.65;;;;;;;8.94;100.00;100226.13;5056486;28;20048;-68
2023/12/12 06:17:15;;;;;;;23.25;4.30;;;;;;;9.00;100.00;100219.19;5024905;28;20037;-68
2023/12/12 06:19:41;;;;;;;21.27;4.10;;;;;;;8.99;100.00;100222.63;5052050;28;20025;-67
2023/12/12 06:22:07;;;;;;;19.05;4.20;;;;;;;8.97;100.00;100223.53;5025424;28;20049;-68
2023/12/12 06:24:33;;;;;;;15.15;4.10;;;;;;;8.98;100.00;100226.09;5024980;28;20107;-68
2023/12/12 06:26:58;;;;;;;15.60;3.60;;;;;;;9.03;100.00;100221.75;5027600;28;20033;-68
2023/12/12 06:29:24;;;;;;;23.08;4.43;;;;;;;9.04;100.00;100210.56;5032364;28;20033;-68
2023/12/12 06:31:50;;;;;;;17.38;4.32;;;;;;;9.03;100.00;100213.16;5028589;28;20037;-68
2023/12/12 06:34:15;;;;;;;17.92;4.05;;;;;;;9.02;100.00;100216.63;5063053;28;20491;-67
2023/12/12 06:36:41;;;;;;;17.52;3.75;;;;;;;8.99;100.00;100211.50;5027363;28;20033;-67
2023/12/12 06:39:09;;;;;;;13.38;3.10;;;;;;;8.98;100.00;100209.78;5055692;28;20090;-67
2023/12/12 06:41:36;;;;;;;15.13;3.60;;;;;;;8.97;100.00;100197.75;5024614;28;20423;-67
2023/12/12 06:44:01;;;;;;;13.45;3.55;;;;;;;8.94;100.00;100198.63;5023747;28;20059;-67
2023/12/12 06:46:27;;;;;;;24.17;3.88;;;;;;;8.96;100.00;100196.88;5020885;28;20042;-67
2023/12/12 06:48:52;;;;;;;17.67;4.30;;;;;;;9.00;100.00;100187.41;5038721;28;20041;-67
2023/12/12 06:51:18;;;;;;;20.83;3.80;;;;;;;8.99;100.00;100193.44;5007628;28;20041;-66
2023/12/12 06:53:44;;;;;;;24.73;3.65;;;;;;;8.95;100.00;100194.34;5055933;28;20519;-67
2023/12/12 06:56:10;;;;;;;19.02;4.05;;;;;;;8.91;100.00;100195.22;5056551;28;20444;-66
2023/12/12 06:58:36;;;;;;;16.38;3.50;;;;;;;8.93;100.00;100193.50;5020465;28;20026;-66
2023/12/12 07:01:01;;;;;;;20.23;4.28;;;;;;;8.90;100.00;100191.78;5023930;28;20064;-66
2023/12/12 07:03:27;;;;;;;13.25;4.63;;;;;;;8.87;100.00;100191.00;5026499;28;20037;-67
2023/12/12 07:05:52;;;;;;;16.70;3.28;;;;;;;8.87;100.00;100196.97;5007525;28;20041;-66
2023/12/12 07:08:19;;;;;;;20.13;3.35;;;;;;;8.88;100.00;100195.25;5055698;28;20058;-67
2023/12/12 07:10:45;;;;;;;15.00;3.25;;;;;;;8.86;100.00;100194.44;5039470;28;20500;-66
2023/12/12 07:13:11;;;;;;;19.38;3.60;;;;;;;8.87;100.00;100188.44;5034429;28;20048;-67
2023/12/12 07:15:37;;;;;;;19.98;4.00;;;;;;;8.87;100.00;100184.09;5054927;28;20501;-67
2023/12/12 07:18:03;;;;;;;17.58;3.13;;;;;;;8.85;100.00;100185.00;5021779;28;20041;-67
2023/12/12 07:20:29;;;;;;;17.15;3.47;;;;;;;8.84;100.00;100181.56;5023040;28;20120;-69
2023/12/12 07:22:55;;;;;;;13.13;3.55;;;;;;;8.79;100.00;100175.59;5016761;28;20401;-67
2023/12/12 07:25:21;;;;;;;24.35;4.05;;;;;;;8.76;100.00;100178.22;5022296;28;20517;-68
2023/12/12 07:27:46;;;;;;;25.08;4.32;;;;;;;8.67;100.00;100172.28;5023347;28;20040;-67
2023/12/12 07:30:12;;;;;;;15.27;4.03;;;;;;;8.58;100.00;100175.81;5022686;28;20404;-68
2023/12/12 07:32:38;;;;;;;20.35;4.53;;;;;;;8.50;100.00;100172.47;5020051;28;20125;-68
2023/12/12 07:35:04;;;;;;;18.55;3.35;;;;;;;8.38;100.00;100165.72;5054766;28;20091;-67
2023/12/12 07:37:30;;;;;;;16.42;3.60;;;;;;;8.25;100.00;100160.69;5051292;28;20103;-67
2023/12/12 07:39:57;;;;;;;17.25;3.63;;;;;;;8.16;100.00;100153.06;5024575;28;20064;-68
2023/12/12 07:42:22;;;;;;;16.05;3.47;;;;;;;8.07;100.00;100161.69;5020507;28;20072;-68
2023/12/12 07:44:49;;;;;;;15.73;3.70;;;;;;;7.99;100.00;100159.19;5018611;28;20120;-68
2023/12/12 07:47:14;;;;;;;13.77;4.00;;;;;;;7.96;100.00;100156.63;5023870;28;20074;-68
2023/12/12 07:49:40;;;;;;;20.67;4.50;;;;;;;7.89;100.00;100164.41;5020456;28;20481;-68
2023/12/12 07:52:06;;;;;;;22.92;3.88;;;;;;;7.85;100.00;100157.56;5021310;28;20500;-67
2023/12/12 07:54:32;;;;;;;19.77;4.00;;;;;;;7.83;100.00;100149.84;5027011;28;20047;-67
2023/12/12 07:56:57;;;;;;;16.40;4.03;;;;;;;7.82;100.00;100148.16;5011862;28;20047;-67
2023/12/12 07:59:23;;;;;;;23.02;4.70;;;;;;;7.82;100.00;100153.31;5047028;28;20465;-68
2023/12/12 08:01:48;;;;;;;19.40;4.75;;;;;;;7.79;100.00;100149.91;5012562;28;20045;-66
2023/12/12 08:04:14;;;;;;;19.80;4.93;;;;;;;7.75;100.00;100145.63;5033993;28;20065;-67
2023/12/12 08:06:40;;;;;;;24.90;4.30;;;;;;;7.76;100.00;100145.63;5012239;28;20038;-67
2023/12/12 08:09:07;;;;;;;21.83;4.63;;;;;;;7.79;100.00;100140.47;5048481;28;20684;-67
2023/12/12 08:11:32;;;;;;;28.05;4.82;;;;;;;7.87;100.00;100140.41;5030302;28;20049;-66
2023/12/12 08:13:59;;;;;;;18.17;4.38;;;;;;;7.95;100.00;100134.31;5015292;28;20144;-66
2023/12/12 08:16:25;;;;;;;21.40;4.15;;;;;;;7.96;100.00;100140.31;5030268;28;20037;-67
2023/12/12 08:18:51;;;;;;;26.65;4.68;;;;;;;7.96;100.00;100138.63;5025265;28;20049;-67
2023/12/12 08:21:17;;;;;;;22.73;4.90;;;;;;;7.95;100.00;100133.50;5023094;28;20054;-67
2023/12/12 08:23:43;;;;;;;25.92;4.80;;;;;;;7.93;100.00;100133.50;5044520;28;20592;-67
2023/12/12 08:26:11;;;;;;;22.58;4.10;;;;;;;7.99;100.00;100135.16;5057318;28;20126;-67
2023/12/12 08:28:37;;;;;;;20.75;4.53;;;;;;;8.02;100.00;100127.41;5041784;28;20038;-67
2023/12/12 08:31:02;;;;;;;30.00;4.43;;;;;;;8.06;100.00;100126.53;5009130;28;20037;-67
2023/12/12 08:33:28;;;;;;;18.90;4.10;;;;;;;8.11;100.00;100132.47;5027653;28;20052;-67
2023/12/12 08:35:53;;;;;;;23.45;5.05;;;;;;;8.15;100.00;100131.59;5058684;28;20064;-67
2023/12/12 08:38:19;;;;;;;25.48;5.15;;;;;;;8.15;100.00;100133.31;5026508;28;20065;-67
2023/12/12 08:40:44;;;;;;;23.65;4.22;;;;;;;8.18;100.00;100146.16;5059270;28;20036;-67
2023/12/12 08:43:09;;;;;;;19.75;4.30;;;;;;;8.26;100.00;100139.22;5026037;28;20667;-67
2023/12/12 08:45:35;;;;;;;19.33;4.30;;;;;;;8.40;100.00;100137.34;5028539;28;20048;-67
2023/12/12 08:48:01;;;;;;;19.52;4.32;;;;;;;8.56;100.00;100136.34;5025855;28;20037;-68
2023/12/12 08:50:26;;;;;;;25.10;5.05;;;;;;;8.71;100.00;100138.78;5025432;28;20092;-67
2023/12/12 08:52:52;;;;;;;17.00;4.10;;;;;;;8.82;100.00;100134.34;5026325;28;20137;-67
2023/12/12 08:55:17;;;;;;;16.08;4.15;;;;;;;8.93;100.00;100129.91;5056838;28;20498;-68
2023/12/12 08:57:43;;;;;;;22.35;5.07;;;;;;;9.02;100.00;100128.97;5026525;28;20033;-67
2023/12/12 09:00:10;;;;;;;18.95;3.78;;;;;;;9.10;100.00;100124.56;5024955;28;20041;-67
2023/12/12 09:02:37;;;;;;;17.17;4.13;;;;;;;9.19;100.00;100127.03;5027253;28;20134;-67
2023/12/12 09:05:04;;;;;;;16.95;4.75;;;;;;;9.24;100.00;100116.63;5024447;28;20060;-67
2023/12/12 09:07:29;;;;;;;18.25;3.65;;;;;;;9.27;100.00;100103.69;5025323;28;20049;-67
2023/12/12 09:09:55;;;;;;;15.00;4.20;;;;;;;9.38;100.00;100091.50;5058071;28;20141;-66
2023/12/12 09:12:21;;;;;;;22.45;4.55;;;;;;;9.45;100.00;100106.03;5024151;28;20033;-67
2023/12/12 09:14:46;;;;;;;15.70;4.38;;;;;;;9.50;100.00;100094.75;5021147;28;20066;-67
2023/12/12 09:17:12;;;;;;;22.08;5.10;;;;;;;9.54;100.00;100098.16;5057508;28;20053;-67
2023/12/12 09:19:37;;;;;;;18.42;3.35;;;;;;;9.53;100.00;100086.97;5027912;28;20544;-67
2023/12/12 09:22:03;;;;;;;19.00;4.40;;;;;;;9.57;100.00;100074.91;5029965;28;20038;-67
2023/12/12 09:24:28;;;;;;;22.90;4.97;;;;;;;9.55;100.00;100071.50;5027010;28;20057;-67
2023/12/12 09:26:55;;;;;;;23.05;5.35;;;;;;;9.53;99.53;100060.31;5028502;28;20083;-67
2023/12/12 09:29:20;;;;;;;12.65;3.67;;;;;;;9.55;100.00;100062.03;5025853;28;20040;-67
2023/12/12 09:31:46;;;;;;;13.07;4.13;;;;;;;9.57;99.96;100056.84;5043096;28;20029;-67
2023/12/12 09:34:12;;;;;;;15.45;3.90;;;;;;;9.60;99.85;100054.25;5024894;28;20037;-67
2023/12/12 09:36:38;;;;;;;20.52;5.30;;;;;;;9.58;100.00;100048.25;5024716;28;20535;-67
2023/12/12 09:39:07;;;;;;;23.40;4.10;;;;;;;9.61;99.48;100051.63;5026689;28;20307;-67
2023/12/12 09:41:33;;;;;;;17.10;3.85;;;;;;;9.64;99.55;100046.41;5058595;28;20037;-67
2023/12/12 09:44:01;;;;;;;16.10;3.83;;;;;;;9.68;98.65;100031.72;5026185;28;20026;-67
2023/12/12 09:46:28;;;;;;;12.95;3.90;;;;;;;9.73;98.66;100032.53;5022827;28;20083;-67
2023/12/12 09:48:55;;;;;;;19.17;5.18;;;;;;;9.77;98.99;100036.75;5023499;28;20116;-67
2023/12/12 09:51:21;;;;;;;17.63;3.88;;;;;;;9.80;98.07;100038.41;5024832;28;20049;-67
2023/12/12 09:53:47;;;;;;;13.77;4.10;;;;;;;9.80;97.60;100028.94;5027866;28;20045;-67
2023/12/12 09:56:16;;;;;;;17.40;3.75;;;;;;;9.83;97.54;100026.31;5056749;28;20086;-67
2023/12/12 09:58:47;;;;;;;14.57;3.40;;;;;;;9.84;97.72;100022.00;5056442;28;20021;-67
2023/12/12 10:01:14;;;;;;;27.25;4.95;;;;;;;9.83;98.43;100023.75;5024631;28;20053;-66
2023/12/12 10:03:41;;;;;;;14.32;3.47;;;;;;;9.77;99.17;100029.00;5023351;28;20045;-67
2023/12/12 10:06:09;;;;;;;20.67;3.65;;;;;;;9.78;99.40;100025.56;5025426;28;20037;-67
2023/12/12 10:08:39;;;;;;;18.58;3.80;;;;;;;9.75;99.54;100027.31;5026752;28;20033;-67
2023/12/12 10:11:09;;;;;;;20.85;4.25;;;;;;;9.80;100.00;100020.34;5028344;28;20400;-66
2023/12/12 10:13:54;;;;;;;17.25;4.20;;;;;;;9.85;99.73;100014.22;5020219;28;20492;-67
2023/12/12 10:16:19;;;;;;;21.33;4.45;;;;;;;9.85;100.00;100011.66;5022705;28;20081;-67
2023/12/12 10:18:46;;;;;;;17.77;3.72;;;;;;;9.85;100.00;100006.47;5022486;28;20168;-66
2023/12/12 10:21:20;;;;;;;22.65;4.25;;;;;;;9.88;100.00;99988.38;5024497;28;20040;-68
2023/12/12 10:23:50;;;;;;;12.00;3.78;;;;;;;9.92;100.00;99979.69;5026386;28;20047;-68
2023/12/12 10:26:26;;;;;;;14.95;4.35;;;;;;;9.95;100.00;99966.72;5024907;28;20038;-67
2023/12/12 10:28:54;;;;;;;21.67;4.72;;;;;;;9.97;100.00;99967.53;5057737;28;20033;-67
2023/12/12 10:31:20;;;;;;;16.70;4.40;;;;;;;9.99;100.00;99965.81;5021812;28;20520;-66
2023/12/12 10:33:46;;;;;;;17.77;4.80;;;;;;;10.00;100.00;99959.75;5005868;28;20572;-66
2023/12/12 10:36:12;;;;;;;16.10;4.53;;;;;;;10.00;100.00;99952.00;5056378;28;20084;-67
2023/12/12 10:38:38;;;;;;;15.52;4.82;;;;;;;10.05;100.00;99945.03;5016457;28;20420;-67
2023/12/12 10:41:19;;;;;;;16.42;4.30;;;;;;;10.00;100.00;99946.84;5024781;28;20488;-66
2023/12/12 10:43:46;;;;;;;21.63;5.65;;;;;;;9.99;100.00;99934.81;5055636;28;20043;-67
2023/12/12 10:46:16;;;;;;;15.30;4.45;;;;;;;9.98;100.00;99933.13;5023813;28;20045;-67
2023/12/12 10:48:52;;;;;;;16.80;4.40;;;;;;;9.95;100.00;99928.00;5024428;28;20041;-67
2023/12/12 10:51:18;;;;;;;15.05;5.00;;;;;;;9.88;100.00;99921.25;5023561;28;20040;-67
2023/12/12 10:53:46;;;;;;;20.90;4.57;;;;;;;9.88;100.00;99918.66;5055081;28;20038;-67
2023/12/12 10:56:13;;;;;;;17.35;4.43;;;;;;;9.91;100.00;99925.53;5024509;28;20133;-67
2023/12/12 10:58:41;;;;;;;23.45;4.28;;;;;;;9.98;100.00;99924.50;5054579;28;20042;-66
2023/12/12 11:01:09;;;;;;;16.40;4.35;;;;;;;9.94;100.00;99905.66;5025684;28;20703;-66
2023/12/12 11:03:36;;;;;;;18.70;4.65;;;;;;;9.91;100.00;99910.88;5022995;28;20038;-66
2023/12/12 11:06:02;;;;;;;20.20;4.15;;;;;;;9.88;100.00;99908.34;5024562;28;20029;-66
2023/12/12 11:08:29;;;;;;;15.77;4.50;;;;;;;9.85;100.00;99902.41;5054554;28;20724;-67
2023/12/12 11:10:55;;;;;;;21.20;4.20;;;;;;;9.86;100.00;99902.38;5029053;28;20056;-66
2023/12/12 11:13:22;;;;;;;15.32;4.38;;;;;;;9.86;100.00;99896.34;5040081;28;20030;-67